createdAt,value
2022-08-03T00:01:11.505Z,96986.23
2022-08-03T00:03:40.759Z,96985.63
2022-08-03T00:06:09.393Z,96980.64
2022-08-03T00:08:47.041Z,96980.54
2022-08-03T00:11:15.816Z,96980.63
2022-08-03T00:13:44.253Z,96980.70
2022-08-03T00:16:46.563Z,96979.30
2022-08-03T00:19:14.848Z,96980.50
2022-08-03T00:21:43.360Z,96983.58
2022-08-03T00:24:11.705Z,96982.01
2022-08-03T00:26:40.849Z,96982.94
2022-08-03T00:29:09.343Z,96990.16
2022-08-03T00:31:52.198Z,96992.42
2022-08-03T00:34:57.238Z,96991.20
2022-08-03T00:37:15.033Z,96984.75
2022-08-03T00:39:48.016Z,96982.50
2022-08-03T00:42:18.066Z,96985.94
2022-08-03T00:44:47.240Z,96982.97
2022-08-03T00:47:15.936Z,96985.13
2022-08-03T00:49:45.143Z,96986.98
2022-08-03T00:52:20.679Z,96990.38
2022-08-03T00:55:04.119Z,96983.48
2022-08-03T00:57:33.860Z,96982.68
2022-08-03T01:00:08.768Z,96987.60
2022-08-03T01:02:47.119Z,96991.23
2022-08-03T01:05:15.733Z,96990.21
2022-08-03T01:08:06.871Z,96985.52
2022-08-03T01:14:04.267Z,96995.40
2022-08-03T01:17:19.857Z,96994.52
2022-08-03T01:20:02.151Z,96996.29
2022-08-03T01:22:32.084Z,96997.27
2022-08-03T01:25:22.753Z,96989.68
2022-08-03T01:27:53.828Z,96988.16
2022-08-03T01:30:28.856Z,96986.71
2022-08-03T01:33:16.520Z,96982.93
2022-08-03T01:35:59.127Z,96984.98
2022-08-03T01:38:37.747Z,96989.84
2022-08-03T01:41:37.567Z,96987.48
2022-08-03T01:44:27.788Z,96990.73
2022-08-03T01:47:01.350Z,96992.25
2022-08-03T01:49:38.853Z,96988.60
2022-08-03T01:52:12.797Z,96986.70
2022-08-03T01:54:45.842Z,96984.61
2022-08-03T01:57:15.896Z,96984.98
2022-08-03T02:02:33.179Z,96988.00
2022-08-03T02:05:16.740Z,96989.94
2022-08-03T02:07:50.173Z,96987.46
2022-08-03T02:10:34.642Z,96981.14
2022-08-03T02:13:07.854Z,96979.79
2022-08-03T02:15:41.538Z,96981.64
2022-08-03T02:18:11.050Z,96981.45
2022-08-03T02:20:46.641Z,96982.27
2022-08-03T02:23:28.171Z,96982.28
2022-08-03T02:26:02.935Z,96982.45
2022-08-03T02:28:41.933Z,96979.55
2022-08-03T02:31:21.435Z,96979.49
2022-08-03T02:33:54.028Z,96979.77
2022-08-03T02:36:36.027Z,96977.76
2022-08-03T02:39:05.754Z,96976.77
2022-08-03T02:41:45.602Z,96972.09
2022-08-03T02:44:17.603Z,96970.83
2022-08-03T02:46:49.633Z,96975.25
2022-08-03T02:52:04.509Z,96972.94
2022-08-03T02:54:34.445Z,96970.26
2022-08-03T02:57:08.345Z,96975.11
2022-08-03T02:59:38.160Z,96976.23
2022-08-03T03:02:19.402Z,96984.34
2022-08-03T03:05:54.866Z,96987.59
2022-08-03T03:07:51.859Z,96988.95
2022-08-03T03:10:38.666Z,96988.10
2022-08-03T03:13:10.139Z,96987.78
2022-08-03T03:15:41.416Z,96982.46
2022-08-03T03:18:33.343Z,96987.31
2022-08-03T03:21:32.452Z,96990.22
2022-08-03T03:24:09.472Z,96991.94
2022-08-03T03:27:06.147Z,96990.10
2022-08-03T03:32:37.463Z,96998.81
2022-08-03T03:35:07.185Z,97003.35
2022-08-03T03:37:35.694Z,97004.90
2022-08-03T03:42:54.507Z,97005.91
2022-08-03T03:45:24.478Z,97007.55
2022-08-03T03:47:53.593Z,97009.89
2022-08-03T03:50:24.310Z,97010.73
2022-08-03T03:52:52.905Z,97009.77
2022-08-03T03:55:23.156Z,97013.71
2022-08-03T03:57:52.603Z,97012.42
2022-08-03T04:00:22.423Z,97013.22
2022-08-03T04:02:51.001Z,97015.06
2022-08-03T04:05:40.948Z,97021.30
2022-08-03T04:08:34.447Z,97024.25
2022-08-03T04:11:10.924Z,97027.20
2022-08-03T04:13:57.885Z,97032.16
2022-08-03T04:17:01.885Z,97033.90
2022-08-03T04:22:30.315Z,97030.42
2022-08-03T04:25:10.092Z,97029.55
2022-08-03T04:27:46.490Z,97033.21
2022-08-03T04:30:37.990Z,97035.20
2022-08-03T04:33:09.083Z,97034.41
2022-08-03T04:36:01.451Z,97036.66
2022-08-03T04:38:56.417Z,97039.33
2022-08-03T04:41:27.008Z,97040.98
2022-08-03T04:43:58.455Z,97042.81
2022-08-03T04:46:52.742Z,97045.85
2022-08-03T04:49:42.487Z,97048.70
2022-08-03T04:52:12.029Z,97050.62
2022-08-03T04:54:48.836Z,97049.64
2022-08-03T04:57:22.539Z,97052.31
2022-08-03T05:00:02.252Z,97055.12
2022-08-03T05:03:20.316Z,97050.95
2022-08-03T05:05:53.607Z,97049.58
2022-08-03T05:08:32.258Z,97047.20
2022-08-03T05:11:05.097Z,97048.89
2022-08-03T05:13:37.985Z,97051.86
2022-08-03T05:16:06.375Z,97054.39
2022-08-03T05:18:36.118Z,97046.12
2022-08-03T05:21:07.476Z,97047.95
2022-08-03T05:23:36.515Z,97050.58
2022-08-03T05:29:08.776Z,97053.62
2022-08-03T05:31:39.799Z,97053.38
2022-08-03T05:34:08.440Z,97050.73
2022-08-03T05:36:36.996Z,97046.67
2022-08-03T05:39:10.704Z,97045.38
2022-08-03T05:41:39.531Z,97050.58
2022-08-03T05:44:07.812Z,97055.01
2022-08-03T05:46:43.999Z,97059.34
2022-08-03T05:49:12.864Z,97064.98
2022-08-03T05:51:41.259Z,97066.27
2022-08-03T05:54:23.789Z,97064.06
2022-08-03T05:57:12.019Z,97066.98
2022-08-03T05:59:54.581Z,97069.84
2022-08-03T06:02:27.431Z,97072.40
2022-08-03T06:04:57.912Z,97072.91
2022-08-03T06:07:26.308Z,97074.97
2022-08-03T06:10:36.292Z,97076.11
2022-08-03T06:12:45.082Z,97080.16
2022-08-03T06:15:22.192Z,97077.61
2022-08-03T06:17:51.807Z,97080.06
2022-08-03T06:20:31.433Z,97082.90
2022-08-03T06:23:01.405Z,97082.20
2022-08-03T06:25:31.046Z,97078.62
2022-08-03T06:28:00.249Z,97078.14
2022-08-03T06:30:35.226Z,97080.86
2022-08-03T06:33:08.258Z,97082.84
2022-08-03T06:35:36.987Z,97084.20
2022-08-03T06:38:17.613Z,97084.83
2022-08-03T06:40:46.165Z,97083.27
2022-08-03T06:43:17.247Z,97082.52
2022-08-03T06:45:47.707Z,97078.20
2022-08-03T06:48:22.435Z,97076.95
2022-08-03T06:50:50.828Z,97074.39
2022-08-03T06:53:19.757Z,97079.21
2022-08-03T06:55:54.982Z,97079.86
2022-08-03T06:58:28.090Z,97080.48
2022-08-03T07:00:56.558Z,97074.46
2022-08-03T07:03:25.364Z,97071.56
2022-08-03T07:05:53.662Z,97069.02
2022-08-03T07:08:33.933Z,97070.39
2022-08-03T07:11:02.918Z,97066.52
2022-08-03T07:13:32.664Z,97068.05
2022-08-03T07:16:02.241Z,97067.73
2022-08-03T07:18:40.973Z,97062.98
2022-08-03T07:21:11.730Z,97065.39
2022-08-03T07:23:55.121Z,97065.06
2022-08-03T07:26:28.345Z,97066.81
2022-08-03T07:29:04.721Z,97068.39
2022-08-03T07:31:47.083Z,97064.98
2022-08-03T07:34:19.827Z,97063.56
2022-08-03T07:36:54.433Z,97060.33
2022-08-03T07:39:23.988Z,97061.71
2022-08-03T07:41:53.625Z,97063.83
2022-08-03T07:44:29.445Z,97066.44
2022-08-03T07:47:25.291Z,97065.57
2022-08-03T07:50:15.669Z,97066.23
2022-08-03T07:52:54.797Z,97066.93
2022-08-03T07:55:27.683Z,97067.73
2022-08-03T07:58:23.641Z,97071.04
2022-08-03T08:00:56.374Z,97074.92
2022-08-03T08:03:26.901Z,97072.45
2022-08-03T08:05:57.760Z,97071.48
2022-08-03T08:08:31.775Z,97069.44
2022-08-03T08:11:00.445Z,97073.16
2022-08-03T08:13:30.061Z,97073.94
2022-08-03T08:16:08.950Z,97075.93
2022-08-03T08:18:37.700Z,97076.36
2022-08-03T08:21:06.076Z,97071.50
2022-08-03T08:23:42.977Z,97075.91
2022-08-03T08:26:18.627Z,97069.74
2022-08-03T08:28:50.769Z,97070.26
2022-08-03T08:31:22.044Z,97070.25
2022-08-03T08:34:05.936Z,97074.92
2022-08-03T08:36:35.590Z,97072.77
2022-08-03T08:39:04.308Z,97072.70
2022-08-03T08:41:34.938Z,97070.75
2022-08-03T08:44:04.768Z,97074.23
2022-08-03T08:46:38.736Z,97077.59
2022-08-03T08:49:10.237Z,97075.71
2022-08-03T08:51:54.685Z,97074.59
2022-08-03T08:54:34.893Z,97073.73
2022-08-03T08:57:12.478Z,97071.37
2022-08-03T08:59:57.315Z,97063.88
2022-08-03T09:02:30.594Z,97067.13
2022-08-03T09:05:01.981Z,97062.90
2022-08-03T09:07:49.090Z,97064.36
2022-08-03T09:10:22.358Z,97062.36
2022-08-03T09:12:53.490Z,97064.05
2022-08-03T09:15:29.414Z,97062.70
2022-08-03T09:18:32.202Z,97060.81
2022-08-03T09:21:36.387Z,97057.64
2022-08-03T09:24:20.569Z,97064.39
2022-08-03T09:26:58.272Z,97064.88
2022-08-03T09:29:26.740Z,97059.02
2022-08-03T09:32:02.842Z,97064.26
2022-08-03T09:34:33.168Z,97063.38
2022-08-03T09:37:01.708Z,97058.73
2022-08-03T09:39:40.271Z,97055.77
2022-08-03T09:42:17.398Z,97050.61
2022-08-03T09:44:48.978Z,97055.41
2022-08-03T09:47:32.258Z,97053.10
2022-08-03T09:50:06.348Z,97054.52
2022-08-03T09:52:52.833Z,97053.21
2022-08-03T09:56:33.292Z,97049.73
2022-08-03T09:58:14.939Z,97045.90
2022-08-03T10:00:55.237Z,97043.48
2022-08-03T10:03:28.702Z,97042.38
2022-08-03T10:05:59.975Z,97044.20
2022-08-03T10:08:32.582Z,97038.08
2022-08-03T10:11:01.175Z,97041.52
2022-08-03T10:13:30.842Z,97039.43
2022-08-03T10:16:21.600Z,97035.45
2022-08-03T10:18:48.021Z,97036.73
2022-08-03T10:21:20.526Z,97035.09
2022-08-03T10:23:51.357Z,97029.66
2022-08-03T10:26:22.849Z,97027.13
2022-08-03T10:28:59.072Z,97026.25
2022-08-03T10:31:54.467Z,97020.33
2022-08-03T10:34:29.702Z,97020.14
2022-08-03T10:37:01.505Z,97020.45
2022-08-03T10:39:31.045Z,97024.38
2022-08-03T10:42:02.610Z,97028.16
2022-08-03T10:44:42.220Z,97023.88
2022-08-03T10:47:11.846Z,97015.41
2022-08-03T10:49:41.829Z,97014.82
2022-08-03T10:52:32.465Z,97015.65
2022-08-03T10:55:54.049Z,97014.06
2022-08-03T10:58:53.291Z,97009.58
2022-08-03T11:01:59.061Z,97007.80
2022-08-03T11:04:30.495Z,97008.23
2022-08-03T11:07:23.680Z,97010.21
2022-08-03T11:09:56.453Z,97008.27
2022-08-03T11:12:32.644Z,97003.73
2022-08-03T11:15:05.256Z,96999.02
2022-08-03T11:17:46.832Z,96998.33
2022-08-03T11:21:13.018Z,96990.32
2022-08-03T11:24:04.361Z,96984.98
2022-08-03T11:27:14.981Z,96988.53
2022-08-03T11:30:00.962Z,96986.23
2022-08-03T11:32:38.716Z,96982.63
2022-08-03T11:35:25.088Z,96985.70
2022-08-03T11:38:01.943Z,96979.11
2022-08-03T11:40:33.517Z,96978.81
2022-08-03T11:43:04.159Z,96968.85
2022-08-03T11:45:32.612Z,96970.26
2022-08-03T11:48:15.234Z,96966.73
2022-08-03T11:50:45.652Z,96962.79
2022-08-03T11:53:18.963Z,96960.23
2022-08-03T11:55:51.181Z,96963.30
2022-08-03T11:59:10.607Z,96954.38
2022-08-03T12:01:11.663Z,96950.08
2022-08-03T12:03:51.203Z,96948.02
2022-08-03T12:06:20.088Z,96949.88
2022-08-03T12:08:49.043Z,96944.79
2022-08-03T12:11:18.108Z,96942.04
2022-08-03T12:14:28.910Z,96936.38
2022-08-03T12:16:40.560Z,96939.05
2022-08-03T12:19:16.759Z,96939.88
2022-08-03T12:21:56.805Z,96935.63
2022-08-03T12:24:41.996Z,96932.35
2022-08-03T12:27:12.857Z,96931.02
2022-08-03T12:29:58.350Z,96931.67
2022-08-03T12:32:29.958Z,96932.77
2022-08-03T12:35:02.294Z,96926.16
2022-08-03T12:37:35.574Z,96926.38
2022-08-03T12:40:10.425Z,96927.78
2022-08-03T12:42:43.561Z,96929.95
2022-08-03T12:45:26.406Z,96928.88
2022-08-03T12:48:02.044Z,96931.55
2022-08-03T12:50:37.322Z,96933.92
2022-08-03T12:53:09.640Z,96933.88
2022-08-03T12:55:57.097Z,96923.20
2022-08-03T12:58:34.930Z,96930.75
2022-08-03T13:01:09.564Z,96925.95
2022-08-03T13:03:42.697Z,96929.73
2022-08-03T13:06:16.845Z,96929.02
2022-08-03T13:08:49.570Z,96931.61
2022-08-03T13:11:47.645Z,96930.31
2022-08-03T13:14:20.007Z,96920.86
2022-08-03T13:16:50.509Z,96916.34
2022-08-03T13:19:18.851Z,96917.05
2022-08-03T13:22:01.851Z,96922.11
2022-08-03T13:24:48.432Z,96919.98
2022-08-03T13:28:12.468Z,96923.16
2022-08-03T13:30:10.156Z,96913.10
2022-08-03T13:32:39.152Z,96912.07
2022-08-03T13:35:10.678Z,96912.48
2022-08-03T13:37:50.400Z,96906.22
2022-08-03T13:40:18.919Z,96907.61
2022-08-03T13:42:54.236Z,96901.94
2022-08-03T13:45:27.686Z,96899.95
2022-08-03T13:47:58.556Z,96906.81
2022-08-03T13:51:22.477Z,96905.63
2022-08-03T13:53:54.744Z,96902.61
2022-08-03T13:56:25.399Z,96902.58
2022-08-03T13:58:54.249Z,96904.12
2022-08-03T14:01:54.352Z,96906.39
2022-08-03T14:04:15.834Z,96910.33
2022-08-03T14:06:50.652Z,96910.45
2022-08-03T14:09:21.583Z,96908.60
2022-08-03T14:12:07.762Z,96905.89
2022-08-03T14:14:37.138Z,96908.41
2022-08-03T14:17:05.558Z,96901.27
2022-08-03T14:19:34.594Z,96903.23
2022-08-03T14:22:21.841Z,96900.92
2022-08-03T14:24:50.221Z,96899.08
2022-08-03T14:27:20.182Z,96898.48
2022-08-03T14:29:49.618Z,96891.08
2022-08-03T14:32:17.954Z,96895.55
2022-08-03T14:34:46.321Z,96892.52
2022-08-03T14:37:14.923Z,96890.21
2022-08-03T14:40:00.242Z,96889.44
2022-08-03T14:42:28.979Z,96891.40
2022-08-03T14:45:03.630Z,96885.77
2022-08-03T14:50:10.490Z,96887.07
2022-08-03T14:50:41.015Z,96883.52
2022-08-03T14:53:12.999Z,96881.12
2022-08-03T14:55:50.471Z,96876.74
2022-08-03T14:58:22.054Z,96878.11
2022-08-03T15:00:52.574Z,96871.27
2022-08-03T15:03:25.669Z,96875.55
2022-08-03T15:05:56.905Z,96878.29
2022-08-03T15:08:26.684Z,96876.09
2022-08-03T15:10:55.828Z,96881.17
2022-08-03T15:13:25.531Z,96879.17
2022-08-03T15:15:54.886Z,96872.98
2022-08-03T15:18:27.468Z,96871.67
2022-08-03T15:20:55.690Z,96877.80
2022-08-03T15:23:24.048Z,96877.23
2022-08-03T15:26:03.289Z,96871.83
2022-08-03T15:28:41.569Z,96877.19
2022-08-03T15:31:09.886Z,96872.65
2022-08-03T15:33:38.600Z,96873.30
2022-08-03T15:36:07.233Z,96870.73
2022-08-03T15:38:35.753Z,96873.21
2022-08-03T15:41:14.016Z,96867.69
2022-08-03T15:43:42.424Z,96864.98
2022-08-03T15:46:29.252Z,96862.54
2022-08-03T15:48:58.372Z,96858.73
2022-08-03T15:51:26.788Z,96861.98
2022-08-03T15:53:56.303Z,96856.85
2022-08-03T15:56:24.767Z,96856.73
2022-08-03T15:59:03.267Z,96864.21
2022-08-03T16:01:41.606Z,96857.96
2022-08-03T16:04:10.136Z,96860.31
2022-08-03T16:06:38.783Z,96858.45
2022-08-03T16:09:24.393Z,96857.98
2022-08-03T16:11:56.567Z,96859.29
2022-08-03T16:14:34.703Z,96857.40
2022-08-03T16:17:04.959Z,96865.81
2022-08-03T16:19:33.514Z,96860.29
2022-08-03T16:22:01.991Z,96862.42
2022-08-03T16:24:32.139Z,96859.15
2022-08-03T16:27:00.877Z,96856.42
2022-08-03T16:29:30.056Z,96864.70
2022-08-03T16:31:58.293Z,96860.14
2022-08-03T16:34:26.829Z,96859.92
2022-08-03T16:36:55.219Z,96864.33
2022-08-03T16:39:24.988Z,96865.54
2022-08-03T16:42:01.293Z,96866.42
2022-08-03T16:44:31.650Z,96867.40
2022-08-03T16:47:27.870Z,96868.17
2022-08-03T16:49:56.782Z,96869.66
2022-08-03T16:52:26.409Z,96873.68
2022-08-03T16:54:55.335Z,96880.10
2022-08-03T16:57:56.748Z,96881.67
2022-08-03T17:00:32.712Z,96879.55
2022-08-03T17:03:12.414Z,96882.33
2022-08-03T17:05:59.647Z,96882.98
2022-08-03T17:08:30.147Z,96883.29
2022-08-03T17:10:58.620Z,96882.79
2022-08-03T17:13:39.717Z,96888.27
2022-08-03T17:16:15.450Z,96883.13
2022-08-03T17:18:50.033Z,96888.20
2022-08-03T17:21:24.802Z,96891.91
2022-08-03T17:24:18.643Z,96890.39
2022-08-03T17:26:51.205Z,96891.70
2022-08-03T17:29:25.143Z,96893.41
2022-08-03T17:31:54.807Z,96891.65
2022-08-03T17:34:26.484Z,96893.63
2022-08-03T17:37:06.217Z,96889.69
2022-08-03T17:39:58.354Z,96892.65
2022-08-03T17:42:30.851Z,96892.87
2022-08-03T17:45:03.541Z,96899.32
2022-08-03T17:47:42.497Z,96896.88
2022-08-03T17:53:15.465Z,96902.63
2022-08-03T17:56:44.970Z,96902.06
2022-08-03T17:59:44.405Z,96904.40
2022-08-03T18:03:19.986Z,96908.98
2022-08-03T18:08:52.431Z,96918.16
2022-08-03T18:11:35.645Z,96921.98
2022-08-03T18:14:16.463Z,96925.84
2022-08-03T18:16:53.096Z,96929.96
2022-08-03T18:20:02.879Z,96932.73
2022-08-03T18:22:12.910Z,96938.52
2022-08-03T18:24:42.439Z,96941.35
2022-08-03T18:27:16.094Z,96941.81
2022-08-03T18:29:50.243Z,96947.67
2022-08-03T18:32:21.594Z,96949.16
2022-08-03T18:34:58.445Z,96944.84
2022-08-03T18:37:29.742Z,96950.55
2022-08-03T18:40:12.870Z,96950.29
2022-08-03T18:43:09.019Z,96959.66
2022-08-03T18:45:56.007Z,96960.31
2022-08-03T18:48:41.700Z,96961.65
2022-08-03T18:51:24.184Z,96965.29
2022-08-03T18:54:45.446Z,96969.89
2022-08-03T18:57:30.355Z,96970.36
2022-08-03T19:00:12.460Z,96973.34
2022-08-03T19:02:49.746Z,96971.60
2022-08-03T19:05:21.402Z,96972.97
2022-08-03T19:08:00.000Z,96978.86
2022-08-03T19:10:36.847Z,96980.64
2022-08-03T19:13:55.215Z,96980.01
2022-08-03T19:16:38.732Z,96982.43
2022-08-03T19:19:14.518Z,96981.00
2022-08-03T19:21:44.912Z,96982.52
2022-08-03T19:24:14.399Z,96982.84
2022-08-03T19:26:48.491Z,96986.74
2022-08-03T19:29:22.827Z,96992.58
2022-08-03T19:31:59.160Z,96993.03
2022-08-03T19:34:30.505Z,96997.55
2022-08-03T19:37:15.428Z,96998.99
2022-08-03T19:39:44.601Z,96996.67
2022-08-03T19:42:37.285Z,96996.05
2022-08-03T19:45:11.290Z,96997.99
2022-08-03T19:47:52.140Z,96997.69
2022-08-03T19:50:21.386Z,96996.30
2022-08-03T19:53:02.511Z,96994.91
2022-08-03T19:55:36.619Z,96990.29
2022-08-03T19:58:09.602Z,96993.68
2022-08-03T20:00:49.247Z,96994.72
2022-08-03T20:03:21.959Z,96993.92
2022-08-03T20:05:55.104Z,96996.36
2022-08-03T20:08:29.961Z,96994.72
2022-08-03T20:11:01.634Z,97000.50
2022-08-03T20:13:39.128Z,96996.11
2022-08-03T20:16:08.370Z,96989.88
2022-08-03T20:18:47.593Z,96994.83
2022-08-03T20:21:19.096Z,96992.46
2022-08-03T20:24:03.118Z,96993.36
2022-08-03T20:30:04.939Z,96991.33
2022-08-03T20:32:30.985Z,96991.73
2022-08-03T20:35:01.516Z,96993.01
2022-08-03T20:37:31.414Z,96990.63
2022-08-03T20:39:59.765Z,96988.16
2022-08-03T20:42:28.711Z,96991.23
2022-08-03T20:45:05.644Z,96991.15
2022-08-03T20:47:36.147Z,96988.27
2022-08-03T20:50:07.661Z,96987.73
2022-08-03T20:52:49.287Z,96985.82
2022-08-03T20:55:47.877Z,96987.94
2022-08-03T20:58:11.565Z,96987.52
2022-08-03T21:00:44.669Z,96991.80
2022-08-03T21:03:18.063Z,96995.23
2022-08-03T21:11:25.375Z,97010.48
2022-08-03T21:13:04.462Z,96901.19
2022-08-03T21:13:08.028Z,97009.63
2022-08-03T21:14:04.475Z,97009.23
2022-08-03T21:16:39.809Z,97012.29
2022-08-03T21:19:09.356Z,97010.70
2022-08-03T21:21:39.567Z,97008.67
2022-08-03T21:24:11.451Z,97010.80
2022-08-03T21:29:25.024Z,97012.21
2022-08-03T21:31:53.788Z,97015.88
2022-08-03T21:34:22.682Z,97023.59
2022-08-03T21:36:51.362Z,97020.79
2022-08-03T21:39:19.983Z,97021.04
2022-08-03T21:41:48.631Z,97020.79
2022-08-03T21:44:28.873Z,97023.30
2022-08-03T21:47:00.365Z,97025.23
2022-08-03T21:49:52.149Z,97023.23
2022-08-03T21:52:22.713Z,97022.58
2022-08-03T21:54:54.463Z,97027.09
2022-08-03T21:57:26.218Z,97026.31
2022-08-03T21:59:57.584Z,97028.49
2022-08-03T22:02:31.531Z,97035.19
2022-08-03T22:05:16.264Z,97035.46
2022-08-03T22:07:45.735Z,97035.08
2022-08-03T22:10:17.049Z,97034.09
2022-08-03T22:12:45.458Z,97033.59
2022-08-03T22:15:15.750Z,97038.07
2022-08-03T22:18:23.534Z,97038.10
2022-08-03T22:21:01.421Z,97037.02
2022-08-03T22:23:36.843Z,97035.18
2022-08-03T22:26:11.097Z,97036.41
2022-08-03T22:28:40.564Z,97033.45
2022-08-03T22:31:30.892Z,97037.83
2022-08-03T22:33:58.405Z,97039.65
2022-08-03T22:36:27.518Z,97035.07
2022-08-03T22:39:06.703Z,97039.25
2022-08-03T22:41:35.325Z,97038.58
2022-08-03T22:44:04.423Z,97040.16
2022-08-03T22:46:34.352Z,97037.70
2022-08-03T22:49:03.684Z,97039.48
2022-08-03T22:51:34.806Z,97038.30
2022-08-03T22:54:05.043Z,97038.27
2022-08-03T22:56:34.356Z,97036.42
2022-08-03T22:59:39.187Z,97038.81
2022-08-03T23:02:00.398Z,97039.23
2022-08-03T23:04:34.397Z,97040.30
2022-08-03T23:07:05.347Z,97038.48
2022-08-03T23:09:38.924Z,97042.73
2022-08-03T23:12:08.346Z,97039.67
2022-08-03T23:14:40.279Z,97040.04
2022-08-03T23:17:09.881Z,97041.86
2022-08-03T23:25:15.682Z,97041.73
2022-08-03T23:27:47.958Z,97044.06
2022-08-03T23:30:42.865Z,97043.91
2022-08-03T23:33:17.166Z,97047.57
2022-08-03T23:36:22.648Z,97047.31
2022-08-03T23:38:57.120Z,97043.98
2022-08-03T23:41:50.010Z,97046.98
2022-08-03T23:47:05.199Z,97045.34
2022-08-03T23:49:33.775Z,97046.19
2022-08-03T23:52:06.277Z,97045.04
2022-08-03T23:54:45.227Z,97041.08
2022-08-03T23:57:32.911Z,97045.33
